createdAt,value
2022-08-23T00:02:27.850Z,0.98
2022-08-23T00:05:08.285Z,1.10
2022-08-23T00:07:41.798Z,1.20
2022-08-23T00:10:10.905Z,1.20
2022-08-23T00:12:38.589Z,1.00
2022-08-23T00:15:06.367Z,1.08
2022-08-23T00:17:35.100Z,1.08
2022-08-23T00:20:08.818Z,1.05
2022-08-23T00:22:37.246Z,1.00
2022-08-23T00:25:06.582Z,0.90
2022-08-23T00:27:33.863Z,1.10
2022-08-23T00:30:00.894Z,1.27
2022-08-23T00:32:31.908Z,0.90
2022-08-23T00:34:59.643Z,1.00
2022-08-23T00:37:28.184Z,1.05
2022-08-23T00:39:55.116Z,1.20
2022-08-23T00:42:56.496Z,1.00
2022-08-23T00:45:47.432Z,1.00
2022-08-23T00:48:14.424Z,1.10
2022-08-23T00:50:49.235Z,0.98
2022-08-23T00:53:20.310Z,0.95
2022-08-23T00:55:50.844Z,1.00
2022-08-23T00:58:20.296Z,1.20
2022-08-23T01:00:50.020Z,0.98
2022-08-23T01:03:18.654Z,0.98
2022-08-23T01:06:10.868Z,1.20
2022-08-23T01:08:39.312Z,1.30
2022-08-23T01:11:14.087Z,1.02
2022-08-23T01:13:50.381Z,1.10
2022-08-23T01:16:23.281Z,1.00
2022-08-23T01:18:50.950Z,1.15
2022-08-23T01:21:38.486Z,0.98
2022-08-23T01:24:10.412Z,1.10
2022-08-23T01:26:47.949Z,1.27
2022-08-23T01:29:17.347Z,0.95
2022-08-23T01:31:44.379Z,1.10
2022-08-23T01:34:14.620Z,1.20
2022-08-23T01:40:53.613Z,1.00
2022-08-23T01:43:22.843Z,1.25
2022-08-23T01:45:53.539Z,1.13
2022-08-23T01:48:23.386Z,1.27
2022-08-23T01:50:50.881Z,1.10
2022-08-23T01:53:17.861Z,1.30
2022-08-23T01:55:48.424Z,0.93
2022-08-23T01:58:17.741Z,1.30
2022-08-23T02:00:44.627Z,1.10
2022-08-23T02:03:13.534Z,1.17
2022-08-23T02:05:42.707Z,1.27
2022-08-23T02:08:30.540Z,1.00
2022-08-23T02:10:59.961Z,1.10
2022-08-23T02:13:27.168Z,1.35
2022-08-23T02:15:55.146Z,1.13
2022-08-23T02:18:23.181Z,1.10
2022-08-23T02:20:51.759Z,1.00
2022-08-23T02:23:19.995Z,1.20
2022-08-23T02:25:47.115Z,1.00
2022-08-23T02:28:14.199Z,1.20
2022-08-23T02:30:41.104Z,1.00
2022-08-23T02:33:10.354Z,1.05
2022-08-23T02:35:38.767Z,1.00
2022-08-23T02:38:07.316Z,0.98
2022-08-23T02:40:35.646Z,1.05
2022-08-23T02:43:06.915Z,1.10
2022-08-23T02:45:34.756Z,1.23
2022-08-23T02:48:01.819Z,1.45
2022-08-23T02:50:36.111Z,1.13
2022-08-23T02:53:04.544Z,1.15
2022-08-23T02:55:33.140Z,1.13
2022-08-23T02:58:00.383Z,1.00
2022-08-23T03:00:27.588Z,1.20
2022-08-23T03:02:54.931Z,1.10
2022-08-23T03:05:22.024Z,1.25
2022-08-23T03:07:49.318Z,0.93
2022-08-23T03:10:17.046Z,1.30
2022-08-23T03:12:50.508Z,1.10
2022-08-23T03:15:17.534Z,1.08
2022-08-23T03:17:44.503Z,1.00
2022-08-23T03:20:11.684Z,1.10
2022-08-23T03:22:38.685Z,1.40
2022-08-23T03:25:07.032Z,1.27
2022-08-23T03:27:47.096Z,1.10
2022-08-23T03:30:19.203Z,1.10
2022-08-23T03:32:52.024Z,1.27
2022-08-23T03:35:19.368Z,1.38
2022-08-23T03:37:46.397Z,1.02
2022-08-23T03:40:14.450Z,0.90
2022-08-23T03:42:41.318Z,1.20
2022-08-23T03:45:08.592Z,1.13
2022-08-23T03:47:35.964Z,1.13
2022-08-23T03:50:02.905Z,1.05
2022-08-23T03:52:30.677Z,1.20
2022-08-23T03:54:58.787Z,1.23
2022-08-23T03:57:28.011Z,1.02
2022-08-23T03:59:54.872Z,1.02
2022-08-23T04:02:21.826Z,1.20
2022-08-23T04:04:49.001Z,1.15
2022-08-23T04:07:31.709Z,1.10
2022-08-23T04:09:58.637Z,1.25
2022-08-23T04:12:30.472Z,1.00
2022-08-23T04:14:57.723Z,1.05
2022-08-23T04:17:25.410Z,1.35
2022-08-23T04:19:53.777Z,1.08
2022-08-23T04:22:21.574Z,1.27
2022-08-23T04:24:48.984Z,1.08
2022-08-23T04:27:16.771Z,1.00
2022-08-23T04:29:44.897Z,1.10
2022-08-23T04:32:12.094Z,1.20
2022-08-23T04:34:42.354Z,1.17
2022-08-23T04:37:12.967Z,1.10
2022-08-23T04:39:59.037Z,1.02
2022-08-23T04:42:33.102Z,1.20
2022-08-23T04:45:01.216Z,1.02
2022-08-23T04:47:28.359Z,1.10
2022-08-23T04:49:57.810Z,1.20
2022-08-23T04:52:24.631Z,1.13
2022-08-23T04:54:52.150Z,1.30
2022-08-23T04:57:54.948Z,1.10
2022-08-23T05:00:27.147Z,0.90
2022-08-23T05:02:56.776Z,1.00
2022-08-23T05:05:24.492Z,1.13
2022-08-23T05:07:51.399Z,1.20
2022-08-23T05:10:19.816Z,1.00
2022-08-23T05:12:50.961Z,1.02
2022-08-23T05:15:20.484Z,1.30
2022-08-23T05:17:53.049Z,1.00
2022-08-23T05:20:20.138Z,1.17
2022-08-23T05:22:47.185Z,1.08
2022-08-23T05:25:49.334Z,1.05
2022-08-23T05:28:34.504Z,1.20
2022-08-23T05:31:07.005Z,1.33
2022-08-23T05:33:45.856Z,1.15
2022-08-23T05:36:15.963Z,1.20
2022-08-23T05:38:43.268Z,1.08
2022-08-23T05:41:10.655Z,1.08
2022-08-23T05:43:38.068Z,1.38
2022-08-23T05:46:12.175Z,1.05
2022-08-23T05:48:46.979Z,1.20
2022-08-23T05:51:20.150Z,1.20
2022-08-23T05:53:48.674Z,1.35
2022-08-23T05:56:26.396Z,1.08
2022-08-23T05:58:59.674Z,1.10
2022-08-23T06:01:29.725Z,1.20
2022-08-23T06:04:01.370Z,1.30
2022-08-23T06:06:36.879Z,1.38
2022-08-23T06:09:07.992Z,1.08
2022-08-23T06:11:36.628Z,1.30
2022-08-23T06:14:09.304Z,1.20
2022-08-23T06:16:43.766Z,1.10
2022-08-23T06:19:13.647Z,1.25
2022-08-23T06:21:49.674Z,1.20
2022-08-23T06:24:23.365Z,1.10
2022-08-23T06:27:08.982Z,1.13
2022-08-23T06:29:36.088Z,1.23
2022-08-23T06:32:21.662Z,1.00
2022-08-23T06:35:32.895Z,1.02
2022-08-23T06:38:07.013Z,1.08
2022-08-23T06:40:46.137Z,0.93
2022-08-23T06:43:29.370Z,1.00
2022-08-23T06:46:30.854Z,1.00
2022-08-23T06:48:59.550Z,1.25
2022-08-23T06:51:30.641Z,1.13
2022-08-23T06:54:16.303Z,0.90
2022-08-23T06:56:52.553Z,1.10
2022-08-23T06:59:24.571Z,1.17
2022-08-23T07:02:04.542Z,1.02
2022-08-23T07:05:04.901Z,1.02
2022-08-23T07:07:52.418Z,0.90
2022-08-23T07:10:19.522Z,0.98
2022-08-23T07:12:46.383Z,1.15
2022-08-23T07:15:13.840Z,0.93
2022-08-23T07:17:44.013Z,1.00
2022-08-23T07:20:10.893Z,1.15
2022-08-23T07:22:40.521Z,1.00
2022-08-23T07:25:08.733Z,1.10
2022-08-23T07:27:37.065Z,1.00
2022-08-23T07:30:07.483Z,1.00
2022-08-23T07:32:36.602Z,1.20
2022-08-23T07:35:22.982Z,1.17
2022-08-23T07:37:52.939Z,1.20
2022-08-23T07:40:20.581Z,1.33
2022-08-23T07:42:50.239Z,1.10
2022-08-23T07:45:17.982Z,1.00
2022-08-23T07:47:50.451Z,1.30
2022-08-23T07:50:18.199Z,1.30
2022-08-23T07:52:46.390Z,1.50
2022-08-23T07:55:14.148Z,1.30
2022-08-23T07:58:00.372Z,1.20
2022-08-23T08:00:29.799Z,1.13
2022-08-23T08:03:10.108Z,1.10
2022-08-23T08:05:57.653Z,1.13
2022-08-23T08:08:24.627Z,1.20
2022-08-23T08:10:55.015Z,1.00
2022-08-23T08:13:22.062Z,1.02
2022-08-23T08:15:49.124Z,1.13
2022-08-23T08:18:16.391Z,1.13
2022-08-23T08:21:06.303Z,1.00
2022-08-23T08:23:57.536Z,1.13
2022-08-23T08:26:44.180Z,1.38
2022-08-23T08:29:12.123Z,1.10
2022-08-23T08:31:43.787Z,0.93
2022-08-23T08:34:11.262Z,1.50
2022-08-23T08:36:43.487Z,1.33
2022-08-23T08:39:20.369Z,1.17
2022-08-23T08:42:08.768Z,1.05
2022-08-23T08:44:46.804Z,1.30
2022-08-23T08:47:50.255Z,1.15
2022-08-23T08:50:24.446Z,1.23
2022-08-23T08:53:02.827Z,1.20
2022-08-23T08:56:04.140Z,1.20
2022-08-23T08:59:04.403Z,1.00
2022-08-23T09:01:35.125Z,1.10
2022-08-23T09:04:03.654Z,1.30
2022-08-23T09:06:36.764Z,1.13
2022-08-23T09:09:09.923Z,0.95
2022-08-23T09:11:49.249Z,1.20
2022-08-23T09:14:19.402Z,1.20
2022-08-23T09:17:10.228Z,1.08
2022-08-23T09:19:39.230Z,1.00
2022-08-23T09:22:16.394Z,1.30
2022-08-23T09:24:43.735Z,1.00
2022-08-23T09:27:32.835Z,0.90
2022-08-23T09:30:01.351Z,1.10
2022-08-23T09:32:36.151Z,1.00
2022-08-23T09:35:11.317Z,1.00
2022-08-23T09:37:54.706Z,1.10
2022-08-23T09:40:34.341Z,1.20
2022-08-23T09:43:12.724Z,1.10
2022-08-23T09:46:01.843Z,1.15
2022-08-23T09:48:35.456Z,1.38
2022-08-23T09:51:37.676Z,1.40
2022-08-23T09:54:34.243Z,1.10
2022-08-23T09:57:05.931Z,1.20
2022-08-23T09:59:35.518Z,1.25
2022-08-23T10:02:21.930Z,1.50
2022-08-23T10:05:03.644Z,1.60
2022-08-23T10:10:28.888Z,1.02
2022-08-23T10:13:01.024Z,1.17
2022-08-23T10:15:58.543Z,1.30
2022-08-23T10:18:35.218Z,1.40
2022-08-23T10:21:07.611Z,1.40
2022-08-23T10:23:43.217Z,1.20
2022-08-23T10:26:24.861Z,1.35
2022-08-23T10:29:17.175Z,1.52
2022-08-23T10:31:59.515Z,1.38
2022-08-23T10:34:50.259Z,1.30
2022-08-23T10:37:32.774Z,1.45
2022-08-23T10:40:33.794Z,1.50
2022-08-23T10:43:16.000Z,1.30
2022-08-23T10:45:46.532Z,1.25
2022-08-23T10:48:38.357Z,1.33
2022-08-23T10:51:31.970Z,1.42
2022-08-23T10:54:35.182Z,1.40
2022-08-23T10:59:36.965Z,1.40
2022-08-23T11:02:29.804Z,1.55
2022-08-23T11:05:29.935Z,1.48
2022-08-23T11:08:08.379Z,1.40
2022-08-23T11:10:41.533Z,1.50
2022-08-23T11:13:30.507Z,1.60
2022-08-23T11:16:13.928Z,1.60
2022-08-23T11:18:43.669Z,1.50
2022-08-23T11:21:18.643Z,1.30
2022-08-23T11:23:58.520Z,1.35
2022-08-23T11:26:27.108Z,1.15
2022-08-23T11:29:17.302Z,1.60
2022-08-23T11:32:19.876Z,1.33
2022-08-23T11:34:53.106Z,1.17
2022-08-23T11:37:20.395Z,1.40
2022-08-23T11:39:58.205Z,1.30
2022-08-23T11:42:40.052Z,1.45
2022-08-23T11:45:46.793Z,1.40
2022-08-23T11:48:21.937Z,1.38
2022-08-23T11:51:16.776Z,1.58
2022-08-23T11:56:44.393Z,1.38
2022-08-23T11:59:41.880Z,1.38
2022-08-23T12:02:32.255Z,1.30
2022-08-23T12:05:06.892Z,1.40
2022-08-23T12:08:03.691Z,1.30
2022-08-23T12:10:42.681Z,1.55
2022-08-23T12:13:18.747Z,1.60
2022-08-23T12:16:16.314Z,1.60
2022-08-23T12:18:47.641Z,1.60
2022-08-23T12:21:20.999Z,1.63
2022-08-23T12:23:51.826Z,1.55
2022-08-23T12:26:26.969Z,1.50
2022-08-23T12:29:37.785Z,1.38
2022-08-23T12:32:31.712Z,1.33
2022-08-23T12:35:22.729Z,1.47
2022-08-23T12:38:10.676Z,1.40
2022-08-23T12:40:42.488Z,1.67
2022-08-23T12:43:24.273Z,1.42
2022-08-23T12:45:55.057Z,1.40
2022-08-23T12:48:28.181Z,1.30
2022-08-23T12:50:59.441Z,1.55
2022-08-23T12:53:40.267Z,1.60
2022-08-23T12:56:17.338Z,1.65
2022-08-23T12:58:52.277Z,1.40
2022-08-23T13:01:29.883Z,1.98
2022-08-23T13:04:10.864Z,1.50
2022-08-23T13:06:56.861Z,1.38
2022-08-23T13:09:32.010Z,1.60
2022-08-23T13:12:00.419Z,1.63
2022-08-23T13:14:45.076Z,1.73
2022-08-23T13:17:24.840Z,1.30
2022-08-23T13:20:02.283Z,1.60
2022-08-23T13:22:31.248Z,1.58
2022-08-23T13:28:12.375Z,1.55
2022-08-23T13:30:39.554Z,1.50
2022-08-23T13:33:09.427Z,1.38
2022-08-23T13:35:40.838Z,1.40
2022-08-23T13:38:18.279Z,1.73
2022-08-23T13:40:50.545Z,1.40
2022-08-23T13:43:36.769Z,1.60
2022-08-23T13:46:31.983Z,1.50
2022-08-23T13:49:10.846Z,1.60
2022-08-23T13:52:33.487Z,1.70
2022-08-23T13:54:52.567Z,1.40
2022-08-23T13:57:21.365Z,1.60
2022-08-23T13:59:52.022Z,1.50
2022-08-23T14:02:21.019Z,1.40
2022-08-23T14:04:48.215Z,1.48
2022-08-23T14:07:15.631Z,1.58
2022-08-23T14:09:42.910Z,1.70
2022-08-23T14:12:21.828Z,1.30
2022-08-23T14:14:49.258Z,1.38
2022-08-23T14:17:17.139Z,1.58
2022-08-23T14:22:34.183Z,1.88
2022-08-23T14:25:01.170Z,1.67
2022-08-23T14:27:28.300Z,1.83
2022-08-23T14:29:55.198Z,1.30
2022-08-23T14:32:22.364Z,1.70
2022-08-23T14:34:49.671Z,1.65
2022-08-23T14:40:05.101Z,1.67
2022-08-23T14:42:32.304Z,1.70
2022-08-23T14:44:59.211Z,1.75
2022-08-23T14:47:26.793Z,1.52
2022-08-23T14:49:54.160Z,1.40
2022-08-23T14:52:22.024Z,1.45
2022-08-23T14:54:49.652Z,1.70
2022-08-23T14:57:16.704Z,1.40
2022-08-23T14:59:43.504Z,1.83
2022-08-23T15:02:13.338Z,1.90
2022-08-23T15:04:41.689Z,1.50
2022-08-23T15:07:24.010Z,1.70
2022-08-23T15:09:54.499Z,1.45
2022-08-23T15:15:21.680Z,1.50
2022-08-23T15:17:55.645Z,1.50
2022-08-23T15:20:32.771Z,1.50
2022-08-23T15:23:00.445Z,1.80
2022-08-23T15:25:30.677Z,1.92
2022-08-23T15:27:57.729Z,1.90
2022-08-23T15:30:25.055Z,1.77
2022-08-23T15:32:56.893Z,1.65
2022-08-23T15:35:25.676Z,1.52
2022-08-23T15:37:54.487Z,1.65
2022-08-23T15:40:21.904Z,1.63
2022-08-23T15:42:48.839Z,1.40
2022-08-23T15:45:15.718Z,1.40
2022-08-23T15:47:54.892Z,1.40
2022-08-23T15:50:28.886Z,1.60
2022-08-23T15:52:55.703Z,1.48
2022-08-23T15:55:23.221Z,1.80
2022-08-23T15:57:53.221Z,1.42
2022-08-23T16:00:22.882Z,1.75
2022-08-23T16:03:18.777Z,1.70
2022-08-23T16:05:39.332Z,1.55
2022-08-23T16:08:07.128Z,1.52
2022-08-23T16:10:34.442Z,1.40
2022-08-23T16:13:01.456Z,1.25
2022-08-23T16:15:28.349Z,1.33
2022-08-23T16:17:55.195Z,1.70
2022-08-23T16:20:22.057Z,1.67
2022-08-23T16:22:48.866Z,1.33
2022-08-23T16:25:15.725Z,1.40
2022-08-23T16:27:42.500Z,1.55
2022-08-23T16:30:09.957Z,1.77
2022-08-23T16:32:40.072Z,1.80
2022-08-23T16:35:07.765Z,1.58
2022-08-23T16:37:36.098Z,1.80
2022-08-23T16:40:05.982Z,1.40
2022-08-23T16:42:32.835Z,1.67
2022-08-23T16:44:59.595Z,1.50
2022-08-23T16:47:26.556Z,1.30
2022-08-23T16:49:54.049Z,1.70
2022-08-23T16:52:20.888Z,1.70
2022-08-23T16:55:01.602Z,1.42
2022-08-23T16:57:28.530Z,1.27
2022-08-23T16:59:55.758Z,1.50
2022-08-23T17:02:32.817Z,1.33
2022-08-23T17:04:59.769Z,1.40
2022-08-23T17:07:26.787Z,1.73
2022-08-23T17:09:53.590Z,1.50
2022-08-23T17:12:21.224Z,1.38
2022-08-23T17:14:50.733Z,1.38
2022-08-23T17:17:18.280Z,1.60
2022-08-23T17:19:45.128Z,1.55
2022-08-23T17:22:12.329Z,1.48
2022-08-23T17:24:39.558Z,1.73
2022-08-23T17:27:06.954Z,1.67
2022-08-23T17:29:37.311Z,1.60
2022-08-23T17:32:05.428Z,1.40
2022-08-23T17:34:32.383Z,1.50
2022-08-23T17:36:59.706Z,1.50
2022-08-23T17:39:29.172Z,1.35
2022-08-23T17:41:58.153Z,1.60
2022-08-23T17:44:25.306Z,1.40
2022-08-23T17:46:52.377Z,1.50
2022-08-23T17:49:19.655Z,1.55
2022-08-23T17:51:46.746Z,1.30
2022-08-23T17:54:16.003Z,1.30
2022-08-23T17:56:49.984Z,1.45
2022-08-23T18:01:45.275Z,1.45
2022-08-23T18:04:12.202Z,1.50
2022-08-23T18:06:39.322Z,1.65
2022-08-23T18:09:07.885Z,1.45
2022-08-23T18:11:35.441Z,1.52
2022-08-23T18:14:03.277Z,2.08
2022-08-23T18:16:35.068Z,1.90
2022-08-23T18:19:04.553Z,1.77
2022-08-23T18:21:31.367Z,2.30
2022-08-23T18:23:59.011Z,2.80
2022-08-23T18:26:45.616Z,2.88
2022-08-23T18:29:14.430Z,4.00
2022-08-23T18:31:43.550Z,3.10
2022-08-23T18:34:12.078Z,2.90
2022-08-23T18:36:39.314Z,2.40
2022-08-23T18:39:08.133Z,1.90
2022-08-23T18:41:35.673Z,2.42
2022-08-23T18:44:05.337Z,2.10
2022-08-23T18:46:40.431Z,2.20
2022-08-23T18:49:09.512Z,2.35
2022-08-23T18:51:37.103Z,2.60
2022-08-23T18:54:04.140Z,2.50
2022-08-23T18:56:31.217Z,2.45
2022-08-23T18:58:57.985Z,2.50
2022-08-23T19:01:27.961Z,1.92
2022-08-23T19:03:56.027Z,2.00
2022-08-23T19:06:23.733Z,1.63
2022-08-23T19:08:51.778Z,1.67
2022-08-23T19:11:20.077Z,1.52
2022-08-23T19:13:47.792Z,1.48
2022-08-23T19:16:16.013Z,1.83
2022-08-23T19:18:47.611Z,1.67
2022-08-23T19:21:18.249Z,1.70
2022-08-23T19:23:45.724Z,1.38
2022-08-23T19:26:13.952Z,1.42
2022-08-23T19:28:41.390Z,1.70
2022-08-23T19:31:08.685Z,1.50
2022-08-23T19:33:35.733Z,1.65
2022-08-23T19:36:02.775Z,1.63
2022-08-23T19:38:30.175Z,1.77
2022-08-23T19:41:00.431Z,1.60
2022-08-23T19:43:27.265Z,1.55
2022-08-23T19:45:54.931Z,1.45
2022-08-23T19:48:22.149Z,1.70
2022-08-23T19:50:50.288Z,1.40
2022-08-23T19:53:17.312Z,1.50
2022-08-23T19:55:45.080Z,1.67
2022-08-23T19:58:14.675Z,1.67
2022-08-23T20:00:43.005Z,1.50
2022-08-23T20:03:10.191Z,1.55
2022-08-23T20:05:37.032Z,1.73
2022-08-23T20:08:04.226Z,1.50
2022-08-23T20:10:31.055Z,1.85
2022-08-23T20:12:59.163Z,1.80
2022-08-23T20:15:27.473Z,1.42
2022-08-23T20:17:55.203Z,1.40
2022-08-23T20:20:22.429Z,1.90
2022-08-23T20:23:07.879Z,1.63
2022-08-23T20:25:34.690Z,1.50
2022-08-23T20:28:05.048Z,1.42
2022-08-23T20:30:32.049Z,1.40
2022-08-23T20:32:59.102Z,1.50
2022-08-23T20:35:26.045Z,1.52
2022-08-23T20:37:52.831Z,1.63
2022-08-23T20:40:20.508Z,1.50
2022-08-23T20:42:47.397Z,1.67
2022-08-23T20:45:14.178Z,1.38
2022-08-23T20:47:41.294Z,1.52
2022-08-23T20:50:08.712Z,1.70
2022-08-23T20:52:35.606Z,1.80
2022-08-23T20:55:02.779Z,1.70
2022-08-23T20:57:36.785Z,1.83
2022-08-23T21:00:05.995Z,1.60
2022-08-23T21:02:32.819Z,1.50
2022-08-23T21:04:59.629Z,2.05
2022-08-23T21:07:27.969Z,1.90
2022-08-23T21:09:54.898Z,2.00
2022-08-23T21:12:21.681Z,1.70
2022-08-23T21:14:48.484Z,1.63
2022-08-23T21:17:15.313Z,1.70
2022-08-23T21:19:44.122Z,1.30
2022-08-23T21:22:11.064Z,1.60
2022-08-23T21:24:38.509Z,1.70
2022-08-23T21:27:09.408Z,1.70
2022-08-23T21:29:38.514Z,1.70
2022-08-23T21:32:06.861Z,1.80
2022-08-23T21:34:34.193Z,1.70
2022-08-23T21:37:00.954Z,1.65
2022-08-23T21:39:27.735Z,1.60
2022-08-23T21:41:56.098Z,1.50
2022-08-23T21:44:24.727Z,1.48
2022-08-23T21:46:51.733Z,1.58
2022-08-23T21:49:20.945Z,1.60
2022-08-23T21:51:49.119Z,1.60
2022-08-23T21:54:17.669Z,1.52
2022-08-23T21:56:45.923Z,1.25
2022-08-23T21:59:15.244Z,1.40
2022-08-23T22:01:42.860Z,1.40
2022-08-23T22:04:12.976Z,1.30
2022-08-23T22:06:42.211Z,1.35
2022-08-23T22:09:13.097Z,1.27
2022-08-23T22:11:42.496Z,1.50
2022-08-23T22:14:11.929Z,1.50
2022-08-23T22:16:41.000Z,1.67
2022-08-23T22:19:07.803Z,1.70
2022-08-23T22:21:35.599Z,1.70
2022-08-23T22:24:02.717Z,1.67
2022-08-23T22:26:29.670Z,1.67
2022-08-23T22:28:57.125Z,1.58
2022-08-23T22:31:24.393Z,1.98
2022-08-23T22:33:51.599Z,1.58
2022-08-23T22:36:20.965Z,1.80
2022-08-23T22:38:49.004Z,1.70
2022-08-23T22:41:18.628Z,1.80
2022-08-23T22:43:45.829Z,1.58
2022-08-23T22:46:13.578Z,1.80
2022-08-23T22:48:40.884Z,1.70
2022-08-23T22:51:19.734Z,1.60
2022-08-23T22:53:51.907Z,1.80
2022-08-23T22:56:24.892Z,1.85
2022-08-23T23:01:22.894Z,1.83
2022-08-23T23:03:51.451Z,1.83
2022-08-23T23:06:19.695Z,1.67
2022-08-23T23:08:47.129Z,1.55
2022-08-23T23:11:15.091Z,1.55
2022-08-23T23:13:41.952Z,2.05
2022-08-23T23:16:13.578Z,1.70
2022-08-23T23:18:41.950Z,1.50
2022-08-23T23:21:09.747Z,1.30
2022-08-23T23:23:37.696Z,1.33
2022-08-23T23:26:08.107Z,1.40
2022-08-23T23:28:34.988Z,1.60
2022-08-23T23:31:03.391Z,1.35
2022-08-23T23:33:30.396Z,1.40
2022-08-23T23:35:57.361Z,1.40
2022-08-23T23:38:24.148Z,1.30
2022-08-23T23:40:51.368Z,1.23
2022-08-23T23:43:18.155Z,1.20
2022-08-23T23:45:45.010Z,1.20
2022-08-23T23:48:11.870Z,1.30
2022-08-23T23:50:46.729Z,1.20
2022-08-23T23:53:14.420Z,1.20
2022-08-23T23:55:41.731Z,1.30
2022-08-23T23:58:08.699Z,1.60
